createdAt,value
2018-07-09T00:01:59.609Z,100394.38
2018-07-09T00:04:30.294Z,100397.89
2018-07-09T00:07:01.667Z,100396.95
2018-07-09T00:09:31.488Z,100399.75
2018-07-09T00:12:02.353Z,100401.51
2018-07-09T00:14:33.605Z,100397.27
2018-07-09T00:17:04.374Z,100390.33
2018-07-09T00:19:35.609Z,100392.70
2018-07-09T00:22:05.793Z,100402.84
2018-07-09T00:24:36.486Z,100395.16
2018-07-09T00:27:07.421Z,100389.87
2018-07-09T00:29:38.422Z,100387.91
2018-07-09T00:32:09.908Z,100391.00
2018-07-09T00:34:40.505Z,100391.73
2018-07-09T00:37:11.385Z,100388.95
2018-07-09T00:39:42.732Z,100386.45
2018-07-09T00:42:13.502Z,100390.27
2018-07-09T00:44:45.106Z,100399.86
2018-07-09T00:47:15.757Z,100388.17
2018-07-09T00:49:46.353Z,100383.92
2018-07-09T00:52:17.861Z,100390.08
2018-07-09T00:54:48.365Z,100390.17
2018-07-09T00:57:19.823Z,100388.29
2018-07-09T00:59:50.145Z,100386.33
2018-07-09T01:02:20.689Z,100387.44
2018-07-09T01:04:51.297Z,100386.81
2018-07-09T01:07:22.649Z,100392.00
2018-07-09T01:09:53.336Z,100387.13
2018-07-09T01:12:24.684Z,100388.16
2018-07-09T01:14:55.301Z,100389.19
2018-07-09T01:17:25.849Z,100375.13
2018-07-09T01:19:56.671Z,100376.88
2018-07-09T01:22:27.486Z,100376.96
2018-07-09T01:24:58.881Z,100373.87
2018-07-09T01:27:29.542Z,100368.37
2018-07-09T01:30:10.417Z,100372.70
2018-07-09T01:32:40.521Z,100373.28
2018-07-09T01:35:11.612Z,100368.81
2018-07-09T01:37:41.905Z,100377.58
2018-07-09T01:40:12.013Z,100368.58
2018-07-09T01:42:42.157Z,100374.34
2018-07-09T01:45:12.056Z,100369.91
2018-07-09T01:47:41.896Z,100368.88
2018-07-09T01:50:11.827Z,100362.04
2018-07-09T01:52:41.589Z,100366.91
2018-07-09T01:55:11.421Z,100361.41
2018-07-09T01:57:41.166Z,100366.78
2018-07-09T02:00:11.690Z,100358.94
2018-07-09T02:02:42.642Z,100353.26
2018-07-09T02:05:12.445Z,100347.26
2018-07-09T02:07:43.291Z,100343.95
2018-07-09T02:10:14.638Z,100353.34
2018-07-09T02:12:45.328Z,100348.69
2018-07-09T02:15:16.676Z,100350.92
2018-07-09T02:17:47.315Z,100349.22
2018-07-09T02:20:17.660Z,100351.45
2018-07-09T02:22:48.330Z,100354.21
2018-07-09T02:25:19.649Z,100350.58
2018-07-09T02:27:50.335Z,100351.30
2018-07-09T02:30:21.661Z,100351.51
2018-07-09T02:32:52.297Z,100351.19
2018-07-09T02:35:23.677Z,100355.08
2018-07-09T02:37:54.360Z,100359.81
2018-07-09T02:40:25.659Z,100360.53
2018-07-09T02:42:56.339Z,100355.77
2018-07-09T02:45:27.642Z,100357.92
2018-07-09T02:47:58.309Z,100360.50
2018-07-09T02:50:29.654Z,100358.70
2018-07-09T02:53:00.314Z,100359.56
2018-07-09T02:55:31.644Z,100359.50
2018-07-09T02:58:02.331Z,100354.52
2018-07-09T03:00:33.663Z,100358.75
2018-07-09T03:03:04.460Z,100353.89
2018-07-09T03:05:35.366Z,100351.73
2018-07-09T03:08:05.621Z,100357.28
2018-07-09T03:10:36.415Z,100356.64
2018-07-09T03:13:06.597Z,100351.56
2018-07-09T03:15:37.382Z,100349.13
2018-07-09T03:18:08.665Z,100354.45
2018-07-09T03:20:39.465Z,100361.02
2018-07-09T03:23:10.345Z,100357.31
2018-07-09T03:25:41.645Z,100356.98
2018-07-09T03:28:12.361Z,100358.22
2018-07-09T03:30:43.702Z,100361.47
2018-07-09T03:33:14.281Z,100365.87
2018-07-09T03:35:45.621Z,100362.20
2018-07-09T03:38:16.326Z,100362.20
2018-07-09T03:40:47.689Z,100368.41
2018-07-09T03:43:18.313Z,100377.47
2018-07-09T03:45:49.777Z,100371.27
2018-07-09T03:48:20.666Z,100372.98
2018-07-09T03:50:51.659Z,100371.45
2018-07-09T03:53:22.334Z,100376.00
2018-07-09T03:55:53.653Z,100376.11
2018-07-09T03:58:24.591Z,100371.60
2018-07-09T04:00:55.409Z,100378.16
2018-07-09T04:03:26.585Z,100379.70
2018-07-09T04:05:57.545Z,100376.32
2018-07-09T04:08:28.269Z,100376.11
2018-07-09T04:10:59.651Z,100367.62
2018-07-09T04:13:30.257Z,100366.98
2018-07-09T04:16:01.914Z,100362.33
2018-07-09T04:18:32.347Z,100366.11
2018-07-09T04:21:03.630Z,100360.55
2018-07-09T04:23:34.310Z,100368.91
2018-07-09T04:26:05.641Z,100369.89
2018-07-09T04:28:36.322Z,100375.39
2018-07-09T04:31:07.673Z,100369.02
2018-07-09T04:33:38.544Z,100368.80
2018-07-09T04:36:09.354Z,100367.14
2018-07-09T04:38:40.625Z,100371.05
2018-07-09T04:41:11.369Z,100369.44
2018-07-09T04:43:42.588Z,100375.05
2018-07-09T04:46:13.457Z,100372.13
2018-07-09T04:48:44.337Z,100366.70
2018-07-09T04:51:15.687Z,100376.19
2018-07-09T04:53:46.317Z,100361.05
2018-07-09T04:56:17.696Z,100370.37
2018-07-09T04:58:47.525Z,100376.30
2018-07-09T05:01:18.338Z,100379.22
2018-07-09T05:03:49.601Z,100376.11
2018-07-09T05:06:20.333Z,100373.22
2018-07-09T05:08:51.709Z,100370.06
2018-07-09T05:11:22.345Z,100373.94
2018-07-09T05:13:53.665Z,100373.23
2018-07-09T05:16:24.356Z,100371.31
2018-07-09T05:18:55.604Z,100374.88
2018-07-09T05:21:26.429Z,100377.39
2018-07-09T05:23:57.616Z,100374.05
2018-07-09T05:26:28.381Z,100372.23
2018-07-09T05:28:59.546Z,100375.68
2018-07-09T05:31:31.022Z,100371.48
2018-07-09T05:34:01.496Z,100367.28
2018-07-09T05:36:32.383Z,100367.95
2018-07-09T05:39:04.001Z,100367.69
2018-07-09T05:41:34.713Z,100362.67
2018-07-09T05:44:05.359Z,100356.27
2018-07-09T05:46:36.824Z,100366.02
2018-07-09T05:49:07.457Z,100359.56
2018-07-09T05:51:38.354Z,100356.44
2018-07-09T05:54:09.685Z,100358.92
2018-07-09T05:56:40.393Z,100355.01
2018-07-09T05:59:11.609Z,100368.85
2018-07-09T06:01:42.374Z,100361.75
2018-07-09T06:04:13.577Z,100362.67
2018-07-09T06:06:43.499Z,100362.59
2018-07-09T06:09:14.621Z,100355.98
2018-07-09T06:11:45.369Z,100359.28
2018-07-09T06:14:16.582Z,100358.80
2018-07-09T06:16:47.398Z,100359.05
2018-07-09T06:19:17.336Z,100363.52
2018-07-09T06:21:48.349Z,100361.12
2018-07-09T06:24:19.590Z,100364.94
2018-07-09T06:26:50.329Z,100367.02
2018-07-09T06:29:21.601Z,100364.48
2018-07-09T06:31:53.013Z,100356.40
2018-07-09T06:34:23.797Z,100356.11
2018-07-09T06:36:54.498Z,100365.42
2018-07-09T06:39:25.337Z,100368.12
2018-07-09T06:41:56.692Z,100361.71
2018-07-09T06:44:27.402Z,100365.46
2018-07-09T06:46:58.657Z,100358.59
2018-07-09T06:49:29.389Z,100363.13
2018-07-09T06:52:00.741Z,100356.97
2018-07-09T06:54:31.311Z,100361.24
2018-07-09T06:57:02.707Z,100358.45
2018-07-09T06:59:32.509Z,100356.84
2018-07-09T07:02:03.353Z,100360.68
2018-07-09T07:04:34.598Z,100365.14
2018-07-09T07:07:05.781Z,100363.73
2018-07-09T07:09:36.346Z,100362.75
2018-07-09T07:12:06.713Z,100360.50
2018-07-09T07:14:37.308Z,100358.34
2018-07-09T07:17:08.673Z,100360.34
2018-07-09T07:19:39.416Z,100359.00
2018-07-09T07:22:10.517Z,100365.61
2018-07-09T07:24:41.317Z,100365.25
2018-07-09T07:27:12.762Z,100363.51
2018-07-09T07:29:43.485Z,100364.95
2018-07-09T07:32:14.427Z,100365.11
2018-07-09T07:34:45.362Z,100363.91
2018-07-09T07:37:16.900Z,100359.84
2018-07-09T07:39:47.465Z,100363.75
2018-07-09T07:42:18.433Z,100355.09
2018-07-09T07:44:49.727Z,100357.61
2018-07-09T07:47:20.351Z,100354.39
2018-07-09T07:49:51.733Z,100353.99
2018-07-09T07:52:22.401Z,100352.79
2018-07-09T07:54:53.594Z,100350.34
2018-07-09T07:57:24.394Z,100349.84
2018-07-09T07:59:55.325Z,100352.78
2018-07-09T08:02:26.621Z,100348.89
2018-07-09T08:04:57.305Z,100353.22
2018-07-09T08:07:28.633Z,100346.05
2018-07-09T08:09:59.418Z,100340.20
2018-07-09T08:13:01.004Z,100345.26
2018-07-09T08:15:01.502Z,100346.61
2018-07-09T08:17:32.495Z,100336.48
2018-07-09T08:20:03.782Z,100341.53
2018-07-09T08:22:34.522Z,100307.84
2018-07-09T08:25:05.541Z,100334.38
2018-07-09T08:27:36.419Z,100335.86
2018-07-09T08:30:06.359Z,100334.23
2018-07-09T08:32:37.301Z,100338.20
2018-07-09T08:35:08.965Z,100340.47
2018-07-09T08:37:39.533Z,100334.74
2018-07-09T08:40:10.856Z,100337.67
2018-07-09T08:42:41.489Z,100336.57
2018-07-09T08:45:12.309Z,100336.17
2018-07-09T08:47:43.700Z,100331.98
2018-07-09T08:50:14.438Z,100331.08
2018-07-09T08:52:45.406Z,100333.71
2018-07-09T08:55:16.415Z,100334.14
2018-07-09T08:57:47.845Z,100330.58
2018-07-09T09:00:18.402Z,100325.86
2018-07-09T09:02:49.414Z,100325.04
2018-07-09T09:05:20.500Z,100332.05
2018-07-09T09:07:51.404Z,100329.36
2018-07-09T09:10:21.492Z,100327.70
2018-07-09T09:12:52.382Z,100322.80
2018-07-09T09:15:23.400Z,100324.47
2018-07-09T09:17:54.485Z,100321.58
2018-07-09T09:20:25.379Z,100332.60
2018-07-09T09:22:55.868Z,100331.48
2018-07-09T09:25:26.685Z,100315.02
2018-07-09T09:27:57.521Z,100315.84
2018-07-09T09:30:28.338Z,100319.82
2018-07-09T09:32:59.689Z,100312.90
2018-07-09T09:35:30.294Z,100310.17
2018-07-09T09:38:01.692Z,100306.19
2018-07-09T09:40:32.492Z,100316.84
2018-07-09T09:43:03.537Z,100302.17
2018-07-09T09:45:34.299Z,100297.98
2018-07-09T09:48:06.186Z,100307.08
2018-07-09T09:50:36.787Z,100303.11
2018-07-09T09:53:07.001Z,100301.08
2018-07-09T09:55:37.953Z,100297.69
2018-07-09T09:58:09.326Z,100295.56
2018-07-09T10:00:44.105Z,100303.73
2018-07-09T10:03:14.066Z,100302.59
2018-07-09T10:05:44.414Z,100294.30
2018-07-09T10:08:14.314Z,100307.23
2018-07-09T10:11:58.428Z,100291.96
2018-07-09T10:14:28.320Z,100291.09
2018-07-09T10:16:58.203Z,100289.81
2018-07-09T10:19:28.267Z,100287.23
2018-07-09T10:21:58.149Z,100289.56
2018-07-09T10:24:28.006Z,100283.61
2018-07-09T10:26:57.942Z,100281.38
2018-07-09T10:29:27.923Z,100279.03
2018-07-09T10:31:57.930Z,100273.73
2018-07-09T10:34:28.043Z,100275.64
2018-07-09T10:36:57.979Z,100276.77
2018-07-09T10:39:27.935Z,100268.58
2018-07-09T10:41:57.961Z,100266.45
2018-07-09T10:44:28.038Z,100263.74
2018-07-09T10:46:58.105Z,100264.48
2018-07-09T10:49:28.203Z,100272.13
2018-07-09T10:51:58.423Z,100265.59
2018-07-09T10:54:28.519Z,100268.00
2018-07-09T10:56:58.427Z,100262.26
2018-07-09T10:59:28.252Z,100260.54
2018-07-09T11:01:58.591Z,100253.20
2018-07-09T11:04:28.561Z,100252.17
2018-07-09T11:06:58.505Z,100256.67
2018-07-09T11:09:29.497Z,100250.81
2018-07-09T11:11:59.563Z,100251.76
2018-07-09T11:14:29.945Z,100254.42
2018-07-09T11:16:59.960Z,100248.53
2018-07-09T11:19:29.848Z,100243.75
2018-07-09T11:21:59.977Z,100241.94
2018-07-09T11:24:29.845Z,100238.66
2018-07-09T11:26:59.959Z,100232.32
2018-07-09T11:29:29.890Z,100234.34
2018-07-09T11:31:59.753Z,100230.78
2018-07-09T11:34:29.923Z,100229.33
2018-07-09T11:36:59.968Z,100225.02
2018-07-09T11:39:29.881Z,100219.77
2018-07-09T11:41:59.876Z,100216.22
2018-07-09T11:44:30.276Z,100219.27
2018-07-09T11:47:00.150Z,100213.50
2018-07-09T11:49:29.986Z,100209.89
2018-07-09T11:51:59.902Z,100203.37
2018-07-09T11:54:30.017Z,100197.51
2018-07-09T11:56:59.860Z,100191.35
2018-07-09T11:59:30.211Z,100198.81
2018-07-09T12:02:00.572Z,100205.47
2018-07-09T12:04:30.932Z,100195.53
2018-07-09T12:07:00.887Z,100205.69
2018-07-09T12:09:31.440Z,100200.63
2018-07-09T12:12:01.260Z,100201.11
2018-07-09T12:14:31.094Z,100200.67
2018-07-09T12:17:00.958Z,100196.56
2018-07-09T12:19:30.903Z,100198.69
2018-07-09T12:22:00.938Z,100193.91
2018-07-09T12:24:30.965Z,100191.94
2018-07-09T12:27:00.999Z,100182.98
2018-07-09T12:29:30.932Z,100181.43
2018-07-09T12:32:00.845Z,100183.42
2018-07-09T12:34:30.969Z,100186.73
2018-07-09T12:37:00.913Z,100179.05
2018-07-09T12:39:30.829Z,100185.87
2018-07-09T12:42:00.910Z,100182.34
2018-07-09T12:44:30.985Z,100172.77
2018-07-09T12:47:01.150Z,100173.10
2018-07-09T12:49:30.961Z,100167.90
2018-07-09T12:52:00.852Z,100173.03
2018-07-09T12:54:31.175Z,100157.70
2018-07-09T12:57:01.245Z,100165.87
2018-07-09T12:59:31.206Z,100157.75
2018-07-09T13:02:01.579Z,100167.89
2018-07-09T13:04:31.730Z,100157.53
2018-07-09T13:07:02.088Z,100165.70
2018-07-09T13:09:32.462Z,100170.37
2018-07-09T13:12:02.246Z,100164.62
2018-07-09T13:14:32.120Z,100172.25
2018-07-09T13:17:02.164Z,100164.93
2018-07-09T13:19:32.135Z,100173.03
2018-07-09T13:22:02.090Z,100165.91
2018-07-09T13:24:32.130Z,100160.94
2018-07-09T13:27:02.047Z,100161.38
2018-07-09T13:29:32.173Z,100158.44
2018-07-09T13:32:02.769Z,100156.19
2018-07-09T13:34:33.065Z,100149.31
2018-07-09T13:37:03.373Z,100149.89
2018-07-09T13:39:35.617Z,100140.52
2018-07-09T13:42:06.031Z,100143.65
2018-07-09T13:44:36.089Z,100146.73
2018-07-09T13:47:06.246Z,100144.11
2018-07-09T13:49:36.337Z,100137.27
2018-07-09T13:52:06.294Z,100138.20
2018-07-09T13:54:36.546Z,100139.92
2018-07-09T13:57:06.816Z,100142.73
2018-07-09T13:59:37.465Z,100135.41
2018-07-09T14:02:07.311Z,100131.39
2018-07-09T14:04:39.013Z,100132.41
2018-07-09T14:07:09.572Z,100131.25
2018-07-09T14:09:40.261Z,100125.09
2018-07-09T14:12:11.637Z,100118.80
2018-07-09T14:14:42.341Z,100118.36
2018-07-09T14:17:13.305Z,100115.05
2018-07-09T14:20:21.477Z,100110.50
2018-07-09T14:22:51.441Z,100113.62
2018-07-09T14:25:21.217Z,100118.06
2018-07-09T14:27:51.017Z,100123.52
2018-07-09T14:30:20.995Z,100115.92
2018-07-09T14:32:50.965Z,100112.89
2018-07-09T14:35:20.904Z,100109.92
2018-07-09T14:37:50.929Z,100117.45
2018-07-09T14:40:21.051Z,100111.70
2018-07-09T14:42:51.100Z,100099.16
2018-07-09T14:45:20.972Z,100099.91
2018-07-09T14:47:51.193Z,100098.58
2018-07-09T14:50:21.591Z,100090.89
2018-07-09T14:52:51.563Z,100092.48
2018-07-09T14:55:21.509Z,100085.94
2018-07-09T14:57:51.393Z,100088.98
2018-07-09T15:00:21.376Z,100084.54
2018-07-09T15:02:51.217Z,100086.28
2018-07-09T15:05:20.973Z,100081.05
2018-07-09T15:07:50.873Z,100085.37
2018-07-09T15:10:20.818Z,100079.19
2018-07-09T15:12:50.961Z,100086.34
2018-07-09T15:15:21.069Z,100076.14
2018-07-09T15:17:50.977Z,100074.89
2018-07-09T15:20:20.845Z,100086.06
2018-07-09T15:22:50.810Z,100071.42
2018-07-09T15:25:21.209Z,100074.19
2018-07-09T15:27:51.444Z,100080.78
2018-07-09T15:30:21.253Z,100072.75
2018-07-09T15:32:51.102Z,100070.44
2018-07-09T15:35:21.072Z,100082.23
2018-07-09T15:37:50.934Z,100071.53
2018-07-09T15:40:20.906Z,100069.17
2018-07-09T15:42:50.773Z,100072.73
2018-07-09T15:45:21.065Z,100070.92
2018-07-09T15:47:50.995Z,100070.41
2018-07-09T15:50:20.965Z,100078.06
2018-07-09T15:52:50.783Z,100078.07
2018-07-09T15:55:21.364Z,100076.98
2018-07-09T15:57:52.326Z,100080.27
2018-07-09T16:00:22.329Z,100078.64
2018-07-09T16:02:53.622Z,100080.81
2018-07-09T16:05:24.314Z,100078.91
2018-07-09T16:19:57.837Z,100067.11
2018-07-09T16:22:27.726Z,100066.58
2018-07-09T16:24:57.728Z,100067.14
2018-07-09T16:27:27.742Z,100062.23
2018-07-09T16:29:57.645Z,100067.71
2018-07-09T16:32:27.677Z,100066.33
2018-07-09T16:34:57.637Z,100065.48
2018-07-09T16:37:27.653Z,100065.52
2018-07-09T16:39:57.655Z,100069.06
2018-07-09T16:42:27.612Z,100069.62
2018-07-09T16:44:57.589Z,100061.41
2018-07-09T16:47:27.534Z,100061.41
2018-07-09T16:49:57.579Z,100062.80
2018-07-09T16:52:27.577Z,100063.87
2018-07-09T16:54:57.519Z,100059.22
2018-07-09T16:57:27.530Z,100055.11
2018-07-09T16:59:57.603Z,100061.69
2018-07-09T17:02:27.502Z,100063.86
2018-07-09T17:04:57.606Z,100059.80
2018-07-09T17:07:27.509Z,100057.08
2018-07-09T17:09:57.563Z,100066.88
2018-07-09T17:12:27.562Z,100065.51
2018-07-09T17:14:57.584Z,100061.16
2018-07-09T17:17:27.463Z,100062.50
2018-07-09T17:19:57.570Z,100063.87
2018-07-09T17:22:27.570Z,100063.07
2018-07-09T17:24:57.649Z,100059.53
2018-07-09T17:27:27.540Z,100064.16
2018-07-09T17:29:57.639Z,100057.08
2018-07-09T17:32:27.469Z,100059.54
2018-07-09T17:34:57.692Z,100061.40
2018-07-09T17:37:27.646Z,100057.05
2018-07-09T17:39:57.505Z,100057.86
2018-07-09T17:42:27.612Z,100058.95
2018-07-09T17:44:57.559Z,100057.86
2018-07-09T17:47:27.586Z,100059.22
2018-07-09T17:49:57.604Z,100055.67
2018-07-09T17:52:27.650Z,100065.74
2018-07-09T17:54:57.758Z,100063.57
2018-07-09T17:57:27.598Z,100063.00
2018-07-09T17:59:57.621Z,100066.27
2018-07-09T18:02:27.531Z,100065.98
2018-07-09T18:04:57.655Z,100063.77
2018-07-09T18:07:27.530Z,100067.31
2018-07-09T18:09:57.809Z,100063.73
2018-07-09T18:12:27.689Z,100067.27
2018-07-09T18:14:57.594Z,100062.88
2018-07-09T18:17:27.557Z,100070.48
2018-07-09T18:19:57.514Z,100066.91
2018-07-09T18:22:27.570Z,100067.45
2018-07-09T18:24:57.561Z,100079.95
2018-07-09T18:27:27.883Z,100075.05
2018-07-09T18:29:57.754Z,100077.74
2018-07-09T18:32:27.633Z,100080.20
2018-07-09T18:34:57.634Z,100078.25
2018-07-09T18:37:27.510Z,100080.11
2018-07-09T18:39:57.882Z,100086.06
2018-07-09T18:42:27.728Z,100080.84
2018-07-09T18:44:57.714Z,100087.61
2018-07-09T18:47:27.656Z,100076.14
2018-07-09T18:49:57.601Z,100086.72
2018-07-09T18:52:27.901Z,100092.65
2018-07-09T18:54:57.733Z,100095.89
2018-07-09T18:57:27.668Z,100095.58
2018-07-09T18:59:57.502Z,100097.94
2018-07-09T19:02:27.578Z,100102.47
2018-07-09T19:04:57.649Z,100098.06
2018-07-09T19:07:29.978Z,100101.49
2018-07-09T19:10:00.191Z,100106.33
2018-07-09T19:12:36.106Z,100109.00
2018-07-09T19:15:09.198Z,100108.38
2018-07-09T19:19:00.270Z,100112.42
2018-07-09T19:21:42.060Z,100114.25
2018-07-09T19:24:11.432Z,100122.11
2018-07-09T19:26:40.370Z,100118.19
2018-07-09T19:29:08.310Z,100123.33
2018-07-09T19:31:36.425Z,100118.63
2018-07-09T19:34:04.588Z,100121.53
2018-07-09T19:36:32.853Z,100126.10
2018-07-09T19:39:01.087Z,100129.33
2018-07-09T19:41:29.054Z,100127.91
2018-07-09T19:43:57.002Z,100121.58
2018-07-09T19:46:24.988Z,100125.58
2018-07-09T19:48:53.461Z,100131.23
2018-07-09T19:51:21.794Z,100130.89
2018-07-09T19:53:49.815Z,100132.69
2018-07-09T19:56:17.758Z,100129.85
2018-07-09T19:58:45.812Z,100128.61
2018-07-09T20:01:13.777Z,100131.02
2018-07-09T20:03:41.870Z,100132.17
2018-07-09T20:06:10.280Z,100131.38
2018-07-09T20:08:43.394Z,100138.17
2018-07-09T20:11:16.627Z,100133.17
2018-07-09T20:13:51.709Z,100135.29
2018-07-09T20:16:24.563Z,100128.95
2018-07-09T20:18:53.922Z,100136.98
2018-07-09T20:21:22.091Z,100136.93
2018-07-09T20:23:50.499Z,100139.05
2018-07-09T20:26:19.775Z,100137.20
2018-07-09T20:28:48.122Z,100140.35
2018-07-09T20:31:16.270Z,100141.39
2018-07-09T20:33:44.425Z,100142.98
2018-07-09T20:36:12.946Z,100139.09
2018-07-09T20:38:40.986Z,100138.68
2018-07-09T20:41:09.052Z,100134.52
2018-07-09T20:43:37.863Z,100140.49
2018-07-09T20:46:06.458Z,100147.21
2018-07-09T20:48:35.008Z,100138.98
2018-07-09T20:51:03.397Z,100138.27
2018-07-09T20:53:32.187Z,100141.59
2018-07-09T20:56:01.656Z,100140.52
2018-07-09T20:58:31.007Z,100143.52
2018-07-09T21:01:00.486Z,100144.88
2018-07-09T21:03:28.890Z,100143.78
2018-07-09T21:05:57.285Z,100148.91
2018-07-09T21:08:26.010Z,100151.05
2018-07-09T21:10:54.278Z,100138.61
2018-07-09T21:13:22.269Z,100159.71
2018-07-09T21:15:50.532Z,100152.33
2018-07-09T21:18:19.718Z,100150.13
2018-07-09T21:20:48.575Z,100145.48
2018-07-09T21:23:16.896Z,100145.45
2018-07-09T21:25:45.112Z,100144.20
2018-07-09T21:28:13.220Z,100150.69
2018-07-09T21:30:41.752Z,100151.45
2018-07-09T21:33:10.116Z,100147.66
2018-07-09T21:35:38.371Z,100153.39
2018-07-09T21:38:13.171Z,100151.52
2018-07-09T21:40:41.895Z,100149.52
2018-07-09T21:43:10.132Z,100151.07
2018-07-09T21:45:38.397Z,100148.84
2018-07-09T21:48:10.556Z,100149.80
2018-07-09T21:50:35.917Z,100149.77
2018-07-09T21:53:04.796Z,100154.06
2018-07-09T21:55:33.833Z,100153.19
2018-07-09T21:58:03.000Z,100160.15
2018-07-09T22:00:31.372Z,100145.73
2018-07-09T22:02:59.451Z,100154.34
2018-07-09T22:05:29.631Z,100156.72
2018-07-09T22:08:00.556Z,100154.20
2018-07-09T22:10:31.346Z,100155.48
2018-07-09T22:13:01.434Z,100154.25
2018-07-09T22:15:31.611Z,100154.20
2018-07-09T22:18:01.526Z,100142.84
2018-07-09T22:20:32.446Z,100150.80
2018-07-09T22:23:03.160Z,100154.28
2018-07-09T22:25:32.785Z,100152.78
2018-07-09T22:28:00.968Z,100151.66
2018-07-09T22:30:32.506Z,100152.13
2018-07-09T22:33:02.364Z,100151.55
2018-07-09T22:35:32.181Z,100152.02
2018-07-09T22:38:02.201Z,100148.50
2018-07-09T22:40:32.021Z,100148.43
2018-07-09T22:43:06.485Z,100147.91
2018-07-09T22:45:36.277Z,100149.74
2018-07-09T22:48:06.324Z,100149.16
2018-07-09T22:50:36.113Z,100152.33
2018-07-09T22:53:05.868Z,100150.39
2018-07-09T22:55:46.254Z,100154.56
2018-07-09T22:58:18.816Z,100163.31
2018-07-09T23:00:51.442Z,100157.52
2018-07-09T23:03:24.005Z,100157.97
2018-07-09T23:05:55.437Z,100153.56
2018-07-09T23:08:26.268Z,100151.43
2018-07-09T23:11:21.822Z,100150.80
2018-07-09T23:17:11.810Z,100150.52
2018-07-09T23:21:58.669Z,100154.50
2018-07-09T23:24:27.181Z,100149.11
2018-07-09T23:26:55.667Z,100151.72
2018-07-09T23:29:23.675Z,100150.07
2018-07-09T23:31:51.758Z,100152.31
2018-07-09T23:34:20.171Z,100152.44
2018-07-09T23:36:48.180Z,100146.67
2018-07-09T23:39:16.109Z,100149.08
2018-07-09T23:41:44.153Z,100148.77
2018-07-09T23:44:12.084Z,100141.73
2018-07-09T23:46:40.007Z,100142.48
2018-07-09T23:49:07.964Z,100143.22
2018-07-09T23:51:35.910Z,100138.87
2018-07-09T23:54:03.882Z,100139.63
2018-07-09T23:56:55.048Z,100140.38
2018-07-09T23:59:35.397Z,100143.52
